sensor_id;sensor_type;location;lat;lon;timestamp;pressure;altitude;pressure_sealevel;temperature;humidity
11952;BME280;6036;41.840;23.486;2022-08-25T00:02:18;90439.03;;;21.93;69.34
11952;BME280;6036;41.840;23.486;2022-08-25T00:04:44;90437.72;;;22.05;68.86
11952;BME280;6036;41.840;23.486;2022-08-25T00:07:09;90436.47;;;21.86;70.46
11952;BME280;6036;41.840;23.486;2022-08-25T00:09:34;90431.03;;;21.93;70.27
11952;BME280;6036;41.840;23.486;2022-08-25T00:12:00;90432.56;;;21.94;70.27
11952;BME280;6036;41.840;23.486;2022-08-25T00:14:31;90427.81;;;22.06;69.87
11952;BME280;6036;41.840;23.486;2022-08-25T00:16:57;90425.88;;;22.10;69.69
11952;BME280;6036;41.840;23.486;2022-08-25T00:19:25;90427.72;;;22.13;69.53
11952;BME280;6036;41.840;23.486;2022-08-25T00:21:51;90414.28;;;22.20;69.66
11952;BME280;6036;41.840;23.486;2022-08-25T00:24:17;90413.59;;;22.16;69.54
11952;BME280;6036;41.840;23.486;2022-08-25T00:26:44;90396.25;;;22.04;70.27
11952;BME280;6036;41.840;23.486;2022-08-25T00:29:10;90390.41;;;22.13;69.40
11952;BME280;6036;41.840;23.486;2022-08-25T00:31:35;90398.69;;;22.18;69.18
11952;BME280;6036;41.840;23.486;2022-08-25T00:34:01;90410.25;;;21.55;72.12
11952;BME280;6036;41.840;23.486;2022-08-25T00:36:26;90426.00;;;21.05;74.63
11952;BME280;6036;41.840;23.486;2022-08-25T00:38:53;90433.22;;;20.67;76.26
11952;BME280;6036;41.840;23.486;2022-08-25T00:41:19;90448.84;;;20.61;77.50
11952;BME280;6036;41.840;23.486;2022-08-25T00:44:04;90460.63;;;20.09;79.82
11952;BME280;6036;41.840;23.486;2022-08-25T00:46:32;90466.41;;;19.93;81.06
11952;BME280;6036;41.840;23.486;2022-08-25T00:48:59;90483.59;;;19.68;82.04
11952;BME280;6036;41.840;23.486;2022-08-25T00:54:00;90486.13;;;19.92;81.09
11952;BME280;6036;41.840;23.486;2022-08-25T00:56:26;90486.88;;;19.93;81.22
11952;BME280;6036;41.840;23.486;2022-08-25T00:58:52;90484.31;;;19.82;81.42
11952;BME280;6036;41.840;23.486;2022-08-25T01:01:17;90480.50;;;20.45;78.87
11952;BME280;6036;41.840;23.486;2022-08-25T01:03:43;90472.09;;;20.95;76.26
11952;BME280;6036;41.840;23.486;2022-08-25T01:06:08;90475.91;;;21.31;74.60
11952;BME280;6036;41.840;23.486;2022-08-25T01:08:35;90465.44;;;21.17;74.59
11952;BME280;6036;41.840;23.486;2022-08-25T01:11:01;90457.53;;;21.10;75.04
11952;BME280;6036;41.840;23.486;2022-08-25T01:13:31;90446.63;;;21.34;74.04
11952;BME280;6036;41.840;23.486;2022-08-25T01:15:58;90437.66;;;21.52;73.55
11952;BME280;6036;41.840;23.486;2022-08-25T01:18:23;90447.84;;;21.60;73.41
11952;BME280;6036;41.840;23.486;2022-08-25T01:20:50;90451.50;;;21.70;72.53
11952;BME280;6036;41.840;23.486;2022-08-25T01:23:16;90456.31;;;21.82;72.18
11952;BME280;6036;41.840;23.486;2022-08-25T01:25:46;90459.63;;;21.59;72.31
11952;BME280;6036;41.840;23.486;2022-08-25T01:28:14;90462.38;;;21.52;73.25
11952;BME280;6036;41.840;23.486;2022-08-25T01:30:39;90463.84;;;21.57;73.98
11952;BME280;6036;41.840;23.486;2022-08-25T01:33:05;90469.28;;;21.46;74.26
11952;BME280;6036;41.840;23.486;2022-08-25T01:35:32;90479.25;;;21.42;74.55
11952;BME280;6036;41.840;23.486;2022-08-25T01:37:58;90475.50;;;21.36;74.58
11952;BME280;6036;41.840;23.486;2022-08-25T01:40:23;90475.19;;;21.61;73.55
11952;BME280;6036;41.840;23.486;2022-08-25T01:45:26;90458.97;;;21.18;75.54
11952;BME280;6036;41.840;23.486;2022-08-25T01:47:51;90466.22;;;21.14;75.34
11952;BME280;6036;41.840;23.486;2022-08-25T01:50:17;90456.31;;;21.48;73.99
11952;BME280;6036;41.840;23.486;2022-08-25T01:55:11;90457.78;;;21.83;71.94
11952;BME280;6036;41.840;23.486;2022-08-25T01:57:36;90478.72;;;21.84;71.64
11952;BME280;6036;41.840;23.486;2022-08-25T02:00:05;90474.38;;;21.97;71.41
11952;BME280;6036;41.840;23.486;2022-08-25T02:02:30;90483.19;;;21.94;71.09
11952;BME280;6036;41.840;23.486;2022-08-25T02:04:56;90489.38;;;21.84;71.63
11952;BME280;6036;41.840;23.486;2022-08-25T02:07:21;90486.38;;;21.82;72.18
11952;BME280;6036;41.840;23.486;2022-08-25T02:09:46;90482.00;;;21.65;72.74
11952;BME280;6036;41.840;23.486;2022-08-25T02:12:12;90484.75;;;21.58;73.54
11952;BME280;6036;41.840;23.486;2022-08-25T02:14:37;90478.38;;;21.52;74.09
11952;BME280;6036;41.840;23.486;2022-08-25T02:17:03;90474.47;;;21.60;73.86
11952;BME280;6036;41.840;23.486;2022-08-25T02:19:29;90485.13;;;21.60;73.16
11952;BME280;6036;41.840;23.486;2022-08-25T02:21:55;90489.97;;;21.65;73.38
11952;BME280;6036;41.840;23.486;2022-08-25T02:24:20;90486.00;;;21.50;74.01
11952;BME280;6036;41.840;23.486;2022-08-25T02:26:45;90465.84;;;21.49;74.01
11952;BME280;6036;41.840;23.486;2022-08-25T02:29:11;90460.88;;;21.51;73.02
11952;BME280;6036;41.840;23.486;2022-08-25T02:31:36;90444.28;;;21.40;73.04
11952;BME280;6036;41.840;23.486;2022-08-25T02:34:02;90437.44;;;21.39;72.88
11952;BME280;6036;41.840;23.486;2022-08-25T02:36:28;90438.38;;;21.22;73.27
11952;BME280;6036;41.840;23.486;2022-08-25T02:38:53;90440.97;;;21.29;73.45
11952;BME280;6036;41.840;23.486;2022-08-25T02:41:20;90432.00;;;21.46;72.41
11952;BME280;6036;41.840;23.486;2022-08-25T02:43:46;90424.28;;;21.25;70.38
11952;BME280;6036;41.840;23.486;2022-08-25T02:46:12;90427.13;;;21.41;69.38
11952;BME280;6036;41.840;23.486;2022-08-25T02:48:38;90447.38;;;21.35;68.51
11952;BME280;6036;41.840;23.486;2022-08-25T02:51:04;90447.19;;;21.49;67.97
11952;BME280;6036;41.840;23.486;2022-08-25T02:53:31;90435.59;;;21.63;67.44
11952;BME280;6036;41.840;23.486;2022-08-25T02:55:56;90436.22;;;21.74;67.06
11952;BME280;6036;41.840;23.486;2022-08-25T02:58:21;90443.28;;;21.87;67.10
11952;BME280;6036;41.840;23.486;2022-08-25T03:00:47;90442.06;;;21.95;66.73
11952;BME280;6036;41.840;23.486;2022-08-25T03:03:13;90443.13;;;21.71;68.64
11952;BME280;6036;41.840;23.486;2022-08-25T03:05:39;90443.81;;;21.75;68.24
11952;BME280;6036;41.840;23.486;2022-08-25T03:08:05;90436.91;;;21.81;67.04
11952;BME280;6036;41.840;23.486;2022-08-25T03:10:31;90439.22;;;21.79;66.29
11952;BME280;6036;41.840;23.486;2022-08-25T03:12:56;90430.50;;;21.75;66.07
11952;BME280;6036;41.840;23.486;2022-08-25T03:15:21;90421.66;;;21.55;67.33
11952;BME280;6036;41.840;23.486;2022-08-25T03:17:49;90417.81;;;21.26;68.89
11952;BME280;6036;41.840;23.486;2022-08-25T03:20:15;90415.66;;;21.14;69.58
11952;BME280;6036;41.840;23.486;2022-08-25T03:22:40;90410.38;;;21.10;69.48
11952;BME280;6036;41.840;23.486;2022-08-25T03:25:07;90416.50;;;21.04;69.18
11952;BME280;6036;41.840;23.486;2022-08-25T03:27:51;90411.25;;;20.97;68.99
11952;BME280;6036;41.840;23.486;2022-08-25T03:30:16;90404.88;;;20.53;70.82
11952;BME280;6036;41.840;23.486;2022-08-25T03:32:41;90398.59;;;20.33;72.22
11952;BME280;6036;41.840;23.486;2022-08-25T03:35:07;90394.00;;;20.74;70.76
11952;BME280;6036;41.840;23.486;2022-08-25T03:37:33;90385.41;;;20.97;68.93
11952;BME280;6036;41.840;23.486;2022-08-25T03:39:58;90390.56;;;21.15;68.48
11952;BME280;6036;41.840;23.486;2022-08-25T03:42:23;90401.28;;;21.08;68.16
11952;BME280;6036;41.840;23.486;2022-08-25T03:44:50;90395.03;;;20.88;68.47
11952;BME280;6036;41.840;23.486;2022-08-25T03:47:15;90391.31;;;20.41;69.98
11952;BME280;6036;41.840;23.486;2022-08-25T03:49:40;90381.53;;;20.27;71.58
11952;BME280;6036;41.840;23.486;2022-08-25T03:52:06;90381.22;;;20.62;70.26
11952;BME280;6036;41.840;23.486;2022-08-25T03:54:31;90379.13;;;20.81;69.28
11952;BME280;6036;41.840;23.486;2022-08-25T03:56:56;90380.63;;;20.82;68.97
11952;BME280;6036;41.840;23.486;2022-08-25T03:59:22;90379.13;;;20.81;68.24
11952;BME280;6036;41.840;23.486;2022-08-25T04:01:47;90367.97;;;20.93;67.88
11952;BME280;6036;41.840;23.486;2022-08-25T04:04:13;90379.75;;;20.92;68.01
11952;BME280;6036;41.840;23.486;2022-08-25T04:06:39;90373.63;;;20.98;67.92
11952;BME280;6036;41.840;23.486;2022-08-25T04:09:05;90386.38;;;20.76;67.97
11952;BME280;6036;41.840;23.486;2022-08-25T04:11:31;90376.81;;;20.86;68.42
11952;BME280;6036;41.840;23.486;2022-08-25T04:13:57;90383.72;;;21.14;67.41
11952;BME280;6036;41.840;23.486;2022-08-25T04:16:24;90379.66;;;21.02;67.94
11952;BME280;6036;41.840;23.486;2022-08-25T04:18:50;90382.31;;;21.06;67.21
11952;BME280;6036;41.840;23.486;2022-08-25T04:21:16;90377.00;;;21.06;66.71
11952;BME280;6036;41.840;23.486;2022-08-25T04:23:42;90378.09;;;21.05;67.77
11952;BME280;6036;41.840;23.486;2022-08-25T04:26:12;90386.94;;;20.98;67.63
11952;BME280;6036;41.840;23.486;2022-08-25T04:28:38;90381.19;;;21.03;67.99
11952;BME280;6036;41.840;23.486;2022-08-25T04:31:04;90374.91;;;21.20;67.20
11952;BME280;6036;41.840;23.486;2022-08-25T04:33:30;90375.31;;;21.19;66.95
11952;BME280;6036;41.840;23.486;2022-08-25T04:35:55;90380.31;;;21.13;67.25
11952;BME280;6036;41.840;23.486;2022-08-25T04:38:20;90384.31;;;20.95;68.26
11952;BME280;6036;41.840;23.486;2022-08-25T04:40:54;90387.19;;;21.11;68.01
11952;BME280;6036;41.840;23.486;2022-08-25T04:43:19;90371.59;;;21.13;68.63
11952;BME280;6036;41.840;23.486;2022-08-25T04:45:44;90380.94;;;20.91;69.09
11952;BME280;6036;41.840;23.486;2022-08-25T04:48:09;90378.50;;;21.07;68.10
11952;BME280;6036;41.840;23.486;2022-08-25T04:50:37;90377.81;;;21.33;67.62
11952;BME280;6036;41.840;23.486;2022-08-25T04:53:02;90376.75;;;21.23;67.56
11952;BME280;6036;41.840;23.486;2022-08-25T04:55:28;90383.94;;;20.93;68.81
11952;BME280;6036;41.840;23.486;2022-08-25T04:57:53;90375.38;;;21.12;68.12
11952;BME280;6036;41.840;23.486;2022-08-25T05:00:18;90371.94;;;21.15;67.35
11952;BME280;6036;41.840;23.486;2022-08-25T05:02:43;90371.44;;;21.23;67.56
11952;BME280;6036;41.840;23.486;2022-08-25T05:05:09;90367.06;;;21.10;68.08
11952;BME280;6036;41.840;23.486;2022-08-25T05:07:34;90372.66;;;20.82;69.20
11952;BME280;6036;41.840;23.486;2022-08-25T05:10:01;90368.41;;;20.88;68.88
11952;BME280;6036;41.840;23.486;2022-08-25T05:12:26;90371.09;;;21.21;67.93
11952;BME280;6036;41.840;23.486;2022-08-25T05:14:52;90376.50;;;21.45;66.79
11952;BME280;6036;41.840;23.486;2022-08-25T05:17:18;90371.94;;;21.45;67.02
11952;BME280;6036;41.840;23.486;2022-08-25T05:19:43;90368.75;;;21.57;67.54
11952;BME280;6036;41.840;23.486;2022-08-25T05:22:08;90368.44;;;21.78;67.77
11952;BME280;6036;41.840;23.486;2022-08-25T05:24:34;90359.09;;;21.93;67.10
11952;BME280;6036;41.840;23.486;2022-08-25T05:26:59;90360.00;;;21.57;68.52
11952;BME280;6036;41.840;23.486;2022-08-25T05:29:25;90358.19;;;21.50;69.26
11952;BME280;6036;41.840;23.486;2022-08-25T05:31:51;90358.44;;;21.29;69.95
11952;BME280;6036;41.840;23.486;2022-08-25T05:34:16;90360.22;;;21.09;70.55
11952;BME280;6036;41.840;23.486;2022-08-25T05:36:42;90365.97;;;20.66;72.21
11952;BME280;6036;41.840;23.486;2022-08-25T05:39:08;90367.91;;;21.00;72.19
11952;BME280;6036;41.840;23.486;2022-08-25T05:41:34;90370.94;;;20.64;73.69
11952;BME280;6036;41.840;23.486;2022-08-25T05:43:59;90363.25;;;20.73;73.22
11952;BME280;6036;41.840;23.486;2022-08-25T05:46:25;90360.34;;;20.61;73.58
11952;BME280;6036;41.840;23.486;2022-08-25T05:48:50;90362.66;;;20.59;73.95
11952;BME280;6036;41.840;23.486;2022-08-25T05:51:16;90365.06;;;19.98;76.35
11952;BME280;6036;41.840;23.486;2022-08-25T05:53:42;90359.22;;;19.66;78.82
11952;BME280;6036;41.840;23.486;2022-08-25T05:56:11;90365.44;;;20.45;75.16
11952;BME280;6036;41.840;23.486;2022-08-25T05:58:38;90367.59;;;21.28;72.59
11952;BME280;6036;41.840;23.486;2022-08-25T06:01:03;90372.19;;;21.81;70.22
11952;BME280;6036;41.840;23.486;2022-08-25T06:03:49;90369.63;;;21.74;69.95
11952;BME280;6036;41.840;23.486;2022-08-25T06:06:17;90366.31;;;22.20;68.25
11952;BME280;6036;41.840;23.486;2022-08-25T06:08:43;90362.13;;;22.42;67.50
11952;BME280;6036;41.840;23.486;2022-08-25T06:11:09;90356.91;;;22.35;66.11
11952;BME280;6036;41.840;23.486;2022-08-25T06:13:34;90356.09;;;22.38;65.71
11952;BME280;6036;41.840;23.486;2022-08-25T06:15:59;90361.88;;;21.83;66.93
11952;BME280;6036;41.840;23.486;2022-08-25T06:18:25;90358.50;;;21.82;67.34
11952;BME280;6036;41.840;23.486;2022-08-25T06:20:50;90354.59;;;22.37;66.84
11952;BME280;6036;41.840;23.486;2022-08-25T06:23:16;90349.28;;;22.14;66.31
11952;BME280;6036;41.840;23.486;2022-08-25T06:25:47;90342.81;;;23.00;64.50
11952;BME280;6036;41.840;23.486;2022-08-25T06:28:13;90340.16;;;22.81;64.73
11952;BME280;6036;41.840;23.486;2022-08-25T06:30:38;90334.19;;;22.73;65.76
11952;BME280;6036;41.840;23.486;2022-08-25T06:33:03;90342.06;;;22.57;65.82
11952;BME280;6036;41.840;23.486;2022-08-25T06:35:29;90348.69;;;23.11;64.72
11952;BME280;6036;41.840;23.486;2022-08-25T06:37:54;90337.50;;;23.91;62.41
11952;BME280;6036;41.840;23.486;2022-08-25T06:40:19;90333.50;;;24.77;59.84
11952;BME280;6036;41.840;23.486;2022-08-25T06:42:46;90328.44;;;24.66;58.47
11952;BME280;6036;41.840;23.486;2022-08-25T06:45:12;90324.34;;;24.62;59.86
11952;BME280;6036;41.840;23.486;2022-08-25T06:47:37;90334.63;;;24.63;58.23
11952;BME280;6036;41.840;23.486;2022-08-25T06:50:03;90332.16;;;24.08;60.93
11952;BME280;6036;41.840;23.486;2022-08-25T06:52:28;90334.81;;;24.56;60.22
11952;BME280;6036;41.840;23.486;2022-08-25T06:54:54;90333.88;;;25.07;58.46
11952;BME280;6036;41.840;23.486;2022-08-25T06:57:19;90346.59;;;24.58;59.46
11952;BME280;6036;41.840;23.486;2022-08-25T06:59:44;90334.53;;;24.67;58.95
11952;BME280;6036;41.840;23.486;2022-08-25T07:02:09;90327.00;;;25.35;56.62
11952;BME280;6036;41.840;23.486;2022-08-25T07:04:35;90328.09;;;25.63;54.82
11952;BME280;6036;41.840;23.486;2022-08-25T07:07:00;90334.25;;;26.01;53.72
11952;BME280;6036;41.840;23.486;2022-08-25T07:09:25;90324.38;;;26.23;53.89
11952;BME280;6036;41.840;23.486;2022-08-25T07:11:51;90325.56;;;25.97;54.75
11952;BME280;6036;41.840;23.486;2022-08-25T07:14:17;90324.63;;;26.76;52.76
11952;BME280;6036;41.840;23.486;2022-08-25T07:16:43;90321.50;;;26.77;52.35
11952;BME280;6036;41.840;23.486;2022-08-25T07:19:08;90316.03;;;26.68;52.27
11952;BME280;6036;41.840;23.486;2022-08-25T07:21:35;90318.59;;;26.59;52.62
11952;BME280;6036;41.840;23.486;2022-08-25T07:24:03;90308.13;;;26.39;52.87
11952;BME280;6036;41.840;23.486;2022-08-25T07:26:30;90314.28;;;27.30;51.67
11952;BME280;6036;41.840;23.486;2022-08-25T07:28:56;90323.78;;;28.45;49.16
11952;BME280;6036;41.840;23.486;2022-08-25T07:31:22;90323.16;;;28.81;48.87
11952;BME280;6036;41.840;23.486;2022-08-25T07:33:48;90312.19;;;28.17;48.52
11952;BME280;6036;41.840;23.486;2022-08-25T07:36:32;90311.25;;;28.51;48.84
11952;BME280;6036;41.840;23.486;2022-08-25T07:38:57;90314.44;;;28.68;48.23
11952;BME280;6036;41.840;23.486;2022-08-25T07:41:23;90315.78;;;28.14;49.52
11952;BME280;6036;41.840;23.486;2022-08-25T07:43:49;90318.72;;;27.46;50.29
11952;BME280;6036;41.840;23.486;2022-08-25T07:46:14;90310.78;;;27.73;50.01
11952;BME280;6036;41.840;23.486;2022-08-25T07:48:40;90306.00;;;27.68;50.59
11952;BME280;6036;41.840;23.486;2022-08-25T07:51:09;90314.94;;;28.35;49.25
11952;BME280;6036;41.840;23.486;2022-08-25T07:53:35;90313.84;;;27.84;49.87
11952;BME280;6036;41.840;23.486;2022-08-25T07:56:01;90312.47;;;28.10;48.91
11952;BME280;6036;41.840;23.486;2022-08-25T07:58:26;90316.81;;;27.34;50.95
11952;BME280;6036;41.840;23.486;2022-08-25T08:00:51;90315.28;;;27.24;51.95
11952;BME280;6036;41.840;23.486;2022-08-25T08:03:17;90312.09;;;27.59;50.82
11952;BME280;6036;41.840;23.486;2022-08-25T08:05:43;90303.34;;;27.46;49.39
11952;BME280;6036;41.840;23.486;2022-08-25T08:08:08;90306.31;;;26.49;52.72
11952;BME280;6036;41.840;23.486;2022-08-25T08:10:34;90298.84;;;25.94;55.26
11952;BME280;6036;41.840;23.486;2022-08-25T08:12:59;90312.25;;;26.78;53.20
11952;BME280;6036;41.840;23.486;2022-08-25T08:15:24;90310.16;;;27.60;52.00
11952;BME280;6036;41.840;23.486;2022-08-25T08:17:50;90304.09;;;27.77;50.16
11952;BME280;6036;41.840;23.486;2022-08-25T08:20:15;90296.38;;;28.28;48.62
11952;BME280;6036;41.840;23.486;2022-08-25T08:22:42;90293.47;;;28.54;48.18
11952;BME280;6036;41.840;23.486;2022-08-25T08:25:09;90295.31;;;28.93;48.00
11952;BME280;6036;41.840;23.486;2022-08-25T08:27:35;90304.53;;;29.55;46.63
11952;BME280;6036;41.840;23.486;2022-08-25T08:30:01;90291.63;;;29.69;45.76
11952;BME280;6036;41.840;23.486;2022-08-25T08:32:27;90295.72;;;29.46;47.29
11952;BME280;6036;41.840;23.486;2022-08-25T08:34:52;90295.91;;;30.35;45.92
11952;BME280;6036;41.840;23.486;2022-08-25T08:37:18;90298.00;;;30.64;44.48
11952;BME280;6036;41.840;23.486;2022-08-25T08:39:44;90295.75;;;30.62;44.29
11952;BME280;6036;41.840;23.486;2022-08-25T08:45:03;90295.25;;;29.56;46.12
11952;BME280;6036;41.840;23.486;2022-08-25T08:53:42;90303.81;;;30.06;44.97
11952;BME280;6036;41.840;23.486;2022-08-25T08:56:14;90299.03;;;28.86;48.31
11952;BME280;6036;41.840;23.486;2022-08-25T08:58:57;90292.16;;;29.22;47.56
11952;BME280;6036;41.840;23.486;2022-08-25T09:01:36;90293.50;;;28.90;47.08
11952;BME280;6036;41.840;23.486;2022-08-25T09:04:08;90286.31;;;28.78;47.40
11952;BME280;6036;41.840;23.486;2022-08-25T09:06:41;90281.97;;;28.71;47.95
11952;BME280;6036;41.840;23.486;2022-08-25T09:09:10;90275.84;;;28.89;48.32
11952;BME280;6036;41.840;23.486;2022-08-25T09:25:14;90283.72;;;29.56;47.29
11952;BME280;6036;41.840;23.486;2022-08-25T09:28:08;90284.31;;;30.11;44.21
11952;BME280;6036;41.840;23.486;2022-08-25T09:30:53;90283.97;;;30.18;37.41
11952;BME280;6036;41.840;23.486;2022-08-25T09:33:23;90282.53;;;30.41;38.09
11952;BME280;6036;41.840;23.486;2022-08-25T09:35:50;90270.22;;;29.56;36.83
11952;BME280;6036;41.840;23.486;2022-08-25T09:38:17;90270.78;;;29.69;36.15
11952;BME280;6036;41.840;23.486;2022-08-25T09:40:46;90272.50;;;30.32;35.65
11952;BME280;6036;41.840;23.486;2022-08-25T09:43:29;90271.50;;;30.53;35.61
11952;BME280;6036;41.840;23.486;2022-08-25T09:48:52;90269.78;;;31.41;33.79
11952;BME280;6036;41.840;23.486;2022-08-25T09:59:26;90270.47;;;29.25;37.01
11952;BME280;6036;41.840;23.486;2022-08-25T10:01:55;90265.00;;;29.43;35.93
11952;BME280;6036;41.840;23.486;2022-08-25T10:04:30;90272.63;;;30.05;36.47
11952;BME280;6036;41.840;23.486;2022-08-25T10:06:57;90265.50;;;30.49;35.10
11952;BME280;6036;41.840;23.486;2022-08-25T10:09:33;90267.66;;;30.93;34.18
11952;BME280;6036;41.840;23.486;2022-08-25T10:12:15;90269.03;;;30.41;35.38
11952;BME280;6036;41.840;23.486;2022-08-25T10:14:42;90258.16;;;30.73;35.10
11952;BME280;6036;41.840;23.486;2022-08-25T10:17:22;90267.94;;;29.82;34.80
11952;BME280;6036;41.840;23.486;2022-08-25T10:20:25;90253.72;;;29.72;35.25
11952;BME280;6036;41.840;23.486;2022-08-25T10:22:51;90250.66;;;29.37;37.11
11952;BME280;6036;41.840;23.486;2022-08-25T10:25:28;90255.75;;;29.17;37.31
11952;BME280;6036;41.840;23.486;2022-08-25T10:30:27;90254.31;;;27.73;39.63
11952;BME280;6036;41.840;23.486;2022-08-25T10:33:08;90253.94;;;28.42;39.33
11952;BME280;6036;41.840;23.486;2022-08-25T10:36:09;90250.31;;;28.17;39.33
11952;BME280;6036;41.840;23.486;2022-08-25T10:38:48;90248.69;;;28.47;39.28
11952;BME280;6036;41.840;23.486;2022-08-25T10:41:23;90257.81;;;29.49;37.50
11952;BME280;6036;41.840;23.486;2022-08-25T10:44:12;90249.88;;;27.79;39.04
11952;BME280;6036;41.840;23.486;2022-08-25T10:47:33;90253.16;;;27.83;39.05
11952;BME280;6036;41.840;23.486;2022-08-25T11:00:45;90240.97;;;29.82;35.99
11952;BME280;6036;41.840;23.486;2022-08-25T11:06:00;90238.13;;;28.71;36.87
11952;BME280;6036;41.840;23.486;2022-08-25T11:11:46;90225.03;;;27.66;39.62
11952;BME280;6036;41.840;23.486;2022-08-25T11:13:59;90228.06;;;27.77;39.34
11952;BME280;6036;41.840;23.486;2022-08-25T11:19:48;90226.41;;;28.37;36.53
11952;BME280;6036;41.840;23.486;2022-08-25T11:27:21;90214.66;;;27.25;38.89
11952;BME280;6036;41.840;23.486;2022-08-25T11:30:14;90214.06;;;27.21;40.23
11952;BME280;6036;41.840;23.486;2022-08-25T11:32:46;90205.75;;;28.16;38.27
11952;BME280;6036;41.840;23.486;2022-08-25T11:35:13;90209.50;;;28.28;37.63
11952;BME280;6036;41.840;23.486;2022-08-25T11:38:05;90199.88;;;28.00;36.85
11952;BME280;6036;41.840;23.486;2022-08-25T11:51:39;90202.47;;;28.39;36.54
11952;BME280;6036;41.840;23.486;2022-08-25T11:54:18;90193.94;;;28.32;36.91
11952;BME280;6036;41.840;23.486;2022-08-25T11:56:59;90191.84;;;27.60;37.26
11952;BME280;6036;41.840;23.486;2022-08-25T12:02:31;90185.47;;;28.70;36.07
11952;BME280;6036;41.840;23.486;2022-08-25T12:04:58;90179.16;;;28.09;36.39
11952;BME280;6036;41.840;23.486;2022-08-25T12:11:02;90187.72;;;26.63;38.84
11952;BME280;6036;41.840;23.486;2022-08-25T12:13:42;90191.25;;;27.25;38.20
11952;BME280;6036;41.840;23.486;2022-08-25T12:20:01;90185.75;;;28.81;35.80
11952;BME280;6036;41.840;23.486;2022-08-25T12:27:35;90186.56;;;27.87;37.50
11952;BME280;6036;41.840;23.486;2022-08-25T12:30:26;90193.69;;;27.72;38.01
11952;BME280;6036;41.840;23.486;2022-08-25T12:38:16;90194.28;;;28.43;36.27
11952;BME280;6036;41.840;23.486;2022-08-25T12:45:46;90198.84;;;27.97;37.75
11952;BME280;6036;41.840;23.486;2022-08-25T12:51:19;90192.81;;;27.93;37.06
11952;BME280;6036;41.840;23.486;2022-08-25T12:56:33;90202.25;;;27.49;38.59
11952;BME280;6036;41.840;23.486;2022-08-25T13:12:29;90195.66;;;27.41;37.11
11952;BME280;6036;41.840;23.486;2022-08-25T13:14:58;90176.03;;;27.31;35.84
11952;BME280;6036;41.840;23.486;2022-08-25T13:17:32;90198.53;;;27.25;37.44
11952;BME280;6036;41.840;23.486;2022-08-25T13:22:39;90194.34;;;26.71;39.85
11952;BME280;6036;41.840;23.486;2022-08-25T13:25:05;90196.34;;;26.58;38.73
11952;BME280;6036;41.840;23.486;2022-08-25T13:27:33;90187.13;;;26.81;39.17
11952;BME280;6036;41.840;23.486;2022-08-25T13:29:59;90186.13;;;27.18;37.22
11952;BME280;6036;41.840;23.486;2022-08-25T13:32:28;90200.09;;;26.82;37.46
11952;BME280;6036;41.840;23.486;2022-08-25T13:35:10;90188.84;;;26.53;38.61
11952;BME280;6036;41.840;23.486;2022-08-25T13:37:36;90179.97;;;26.65;38.57
11952;BME280;6036;41.840;23.486;2022-08-25T13:42:46;90191.06;;;26.33;39.61
11952;BME280;6036;41.840;23.486;2022-08-25T13:45:18;90186.56;;;26.30;39.44
11952;BME280;6036;41.840;23.486;2022-08-25T13:47:45;90188.09;;;26.53;39.64
11952;BME280;6036;41.840;23.486;2022-08-25T13:50:17;90196.06;;;26.43;39.45
11952;BME280;6036;41.840;23.486;2022-08-25T13:53:31;90192.16;;;26.23;38.99
11952;BME280;6036;41.840;23.486;2022-08-25T13:58:19;90183.97;;;26.39;39.25
11952;BME280;6036;41.840;23.486;2022-08-25T14:00:51;90175.47;;;26.62;37.91
11952;BME280;6036;41.840;23.486;2022-08-25T14:03:31;90177.47;;;26.71;39.33
11952;BME280;6036;41.840;23.486;2022-08-25T14:06:06;90167.97;;;26.57;38.96
11952;BME280;6036;41.840;23.486;2022-08-25T14:08:36;90168.00;;;26.79;39.17
11952;BME280;6036;41.840;23.486;2022-08-25T14:14:00;90168.97;;;27.16;38.79
11952;BME280;6036;41.840;23.486;2022-08-25T14:16:27;90167.06;;;26.51;39.67
11952;BME280;6036;41.840;23.486;2022-08-25T14:18:55;90160.50;;;26.52;39.46
11952;BME280;6036;41.840;23.486;2022-08-25T14:21:29;90160.63;;;26.70;39.94
11952;BME280;6036;41.840;23.486;2022-08-25T14:23:56;90162.47;;;27.04;39.99
11952;BME280;6036;41.840;23.486;2022-08-25T14:26:22;90149.88;;;26.70;37.80
11952;BME280;6036;41.840;23.486;2022-08-25T14:28:48;90149.25;;;26.88;37.62
11952;BME280;6036;41.840;23.486;2022-08-25T14:31:22;90153.31;;;26.92;37.35
11952;BME280;6036;41.840;23.486;2022-08-25T14:34:12;90145.94;;;26.19;38.05
11952;BME280;6036;41.840;23.486;2022-08-25T14:36:39;90146.09;;;26.59;36.52
11952;BME280;6036;41.840;23.486;2022-08-25T14:39:06;90144.16;;;27.11;36.30
11952;BME280;6036;41.840;23.486;2022-08-25T14:41:34;90142.47;;;26.31;37.46
11952;BME280;6036;41.840;23.486;2022-08-25T14:44:00;90141.03;;;26.39;37.92
11952;BME280;6036;41.840;23.486;2022-08-25T14:46:28;90144.53;;;26.27;38.42
11952;BME280;6036;41.840;23.486;2022-08-25T14:48:57;90126.34;;;26.53;38.03
11952;BME280;6036;41.840;23.486;2022-08-25T14:51:24;90130.97;;;26.74;37.26
11952;BME280;6036;41.840;23.486;2022-08-25T14:53:51;90137.06;;;26.74;37.38
11952;BME280;6036;41.840;23.486;2022-08-25T14:56:18;90127.97;;;26.93;36.56
11952;BME280;6036;41.840;23.486;2022-08-25T14:58:44;90127.19;;;27.24;36.83
11952;BME280;6036;41.840;23.486;2022-08-25T15:01:13;90114.47;;;27.64;36.61
11952;BME280;6036;41.840;23.486;2022-08-25T15:03:43;90125.56;;;27.84;35.63
11952;BME280;6036;41.840;23.486;2022-08-25T15:06:12;90126.53;;;26.80;38.25
11952;BME280;6036;41.840;23.486;2022-08-25T15:08:39;90121.00;;;27.05;37.34
11952;BME280;6036;41.840;23.486;2022-08-25T15:11:23;90118.00;;;27.03;37.76
11952;BME280;6036;41.840;23.486;2022-08-25T15:13:49;90119.28;;;27.69;36.80
11952;BME280;6036;41.840;23.486;2022-08-25T15:16:19;90111.44;;;28.11;36.58
11952;BME280;6036;41.840;23.486;2022-08-25T15:18:45;90111.56;;;28.25;36.36
11952;BME280;6036;41.840;23.486;2022-08-25T15:21:10;90118.91;;;28.34;35.82
11952;BME280;6036;41.840;23.486;2022-08-25T15:23:36;90107.66;;;28.72;35.44